createdAt,value
2017-09-18T00:00:57.981Z,95187.75
2017-09-18T00:03:25.561Z,95181.30
2017-09-18T00:05:53.313Z,95176.37
2017-09-18T00:08:20.913Z,95184.91
2017-09-18T00:10:48.459Z,95191.36
2017-09-18T00:13:16.054Z,95185.81
2017-09-18T00:15:43.647Z,95194.11
2017-09-18T00:18:11.215Z,95196.67
2017-09-18T00:20:38.990Z,95199.64
2017-09-18T00:23:06.611Z,95201.23
2017-09-18T00:25:34.122Z,95192.98
2017-09-18T00:28:01.931Z,95195.81
2017-09-18T00:30:29.517Z,95198.53
2017-09-18T00:32:57.067Z,95202.27
2017-09-18T00:35:24.650Z,95195.55
2017-09-18T00:37:52.278Z,95197.73
2017-09-18T00:40:19.819Z,95198.18
2017-09-18T00:42:47.361Z,95193.64
2017-09-18T00:45:14.955Z,95195.23
2017-09-18T00:47:42.479Z,95198.21
2017-09-18T00:50:10.055Z,95196.17
2017-09-18T00:52:37.701Z,95201.13
2017-09-18T00:55:05.309Z,95209.63
2017-09-18T00:57:33.138Z,95207.28
2017-09-18T01:00:00.793Z,95204.36
2017-09-18T01:02:28.414Z,95209.78
2017-09-18T01:04:55.962Z,95212.94
2017-09-18T01:07:23.556Z,95218.73
2017-09-18T01:09:51.181Z,95222.50
2017-09-18T01:12:18.975Z,95230.48
2017-09-18T01:14:46.617Z,95223.80
2017-09-18T01:17:14.211Z,95227.10
2017-09-18T01:19:41.762Z,95236.94
2017-09-18T01:22:09.548Z,95244.93
2017-09-18T01:24:37.150Z,95241.37
2017-09-18T01:27:04.911Z,95247.05
2017-09-18T01:29:32.706Z,95249.05
2017-09-18T01:32:00.294Z,95248.03
2017-09-18T01:34:27.865Z,95253.17
2017-09-18T01:36:55.413Z,95255.45
2017-09-18T01:39:23.049Z,95254.56
2017-09-18T01:41:50.586Z,95262.32
2017-09-18T01:44:18.187Z,95271.72
2017-09-18T01:46:45.812Z,95259.61
2017-09-18T01:49:13.563Z,95269.75
2017-09-18T01:51:41.139Z,95271.52
2017-09-18T01:54:08.763Z,95278.31
2017-09-18T01:56:36.556Z,95283.59
2017-09-18T01:59:04.182Z,95280.06
2017-09-18T02:01:31.840Z,95283.59
2017-09-18T02:03:59.598Z,95287.16
2017-09-18T02:06:27.197Z,95290.98
2017-09-18T02:08:54.818Z,95297.34
2017-09-18T02:11:24.192Z,95293.89
2017-09-18T02:13:51.749Z,95288.44
2017-09-18T02:16:20.044Z,95300.95
2017-09-18T02:18:47.909Z,95298.39
2017-09-18T02:21:15.731Z,95305.48
2017-09-18T02:23:43.362Z,95300.89
2017-09-18T02:26:10.934Z,95301.73
2017-09-18T02:28:38.502Z,95310.11
2017-09-18T02:31:06.419Z,95305.27
2017-09-18T02:33:33.992Z,95301.20
2017-09-18T02:36:01.613Z,95301.22
2017-09-18T02:38:29.238Z,95308.67
2017-09-18T02:40:56.769Z,95313.36
2017-09-18T02:43:24.566Z,95319.05
2017-09-18T02:45:52.339Z,95316.91
2017-09-18T02:48:20.114Z,95320.61
2017-09-18T02:50:47.908Z,95322.54
2017-09-18T02:53:15.536Z,95317.21
2017-09-18T02:55:43.079Z,95321.55
2017-09-18T02:58:10.651Z,95327.27
2017-09-18T03:00:38.224Z,95325.62
2017-09-18T03:03:05.850Z,95325.88
2017-09-18T03:05:33.385Z,95325.43
2017-09-18T03:08:01.029Z,95324.07
2017-09-18T03:10:28.656Z,95327.58
2017-09-18T03:12:56.207Z,95330.73
2017-09-18T03:15:23.794Z,95331.92
2017-09-18T03:17:51.340Z,95336.83
2017-09-18T03:20:18.873Z,95342.48
2017-09-18T03:22:46.480Z,95342.48
2017-09-18T03:25:14.040Z,95336.95
2017-09-18T03:27:41.608Z,95338.91
2017-09-18T03:30:10.615Z,95343.91
2017-09-18T03:32:38.213Z,95341.55
2017-09-18T03:35:06.067Z,95342.52
2017-09-18T03:37:33.870Z,95343.30
2017-09-18T03:40:01.457Z,95352.19
2017-09-18T03:42:29.206Z,95358.00
2017-09-18T03:44:56.834Z,95360.22
2017-09-18T03:47:24.396Z,95363.92
2017-09-18T03:49:51.955Z,95361.30
2017-09-18T03:52:19.585Z,95368.17
2017-09-18T03:54:47.183Z,95371.08
2017-09-18T03:57:14.707Z,95371.73
2017-09-18T03:59:42.383Z,95369.92
2017-09-18T04:02:10.738Z,95375.88
2017-09-18T04:04:38.553Z,95371.78
2017-09-18T04:07:06.154Z,95374.87
2017-09-18T04:09:33.749Z,95375.26
2017-09-18T04:12:01.969Z,95379.64
2017-09-18T04:14:29.525Z,95377.29
2017-09-18T04:16:57.100Z,95377.70
2017-09-18T04:19:25.618Z,95380.83
2017-09-18T04:21:53.232Z,95371.46
2017-09-18T04:24:21.038Z,95379.19
2017-09-18T04:26:48.586Z,95372.11
2017-09-18T04:29:16.098Z,95383.06
2017-09-18T04:31:43.862Z,95379.59
2017-09-18T04:34:11.461Z,95376.83
2017-09-18T04:36:39.010Z,95380.48
2017-09-18T04:39:06.603Z,95385.42
2017-09-18T04:41:34.138Z,95384.05
2017-09-18T04:44:01.666Z,95384.58
2017-09-18T04:46:29.293Z,95383.28
2017-09-18T04:48:56.835Z,95387.70
2017-09-18T04:51:24.448Z,95385.44
2017-09-18T04:53:52.019Z,95390.75
2017-09-18T04:56:19.617Z,95396.34
2017-09-18T04:58:47.206Z,95389.83
2017-09-18T05:01:14.815Z,95397.23
2017-09-18T05:03:42.352Z,95388.86
2017-09-18T05:06:10.260Z,95391.01
2017-09-18T05:08:37.793Z,95384.47
2017-09-18T05:11:05.963Z,95386.28
2017-09-18T05:13:33.492Z,95398.19
2017-09-18T05:16:01.283Z,95398.34
2017-09-18T05:18:28.872Z,95401.84
2017-09-18T05:20:56.397Z,95394.04
2017-09-18T05:23:23.990Z,95391.45
2017-09-18T05:25:51.520Z,95397.72
2017-09-18T05:28:19.065Z,95393.78
2017-09-18T05:30:46.642Z,95396.78
2017-09-18T05:33:14.168Z,95394.91
2017-09-18T05:35:41.742Z,95397.80
2017-09-18T05:38:09.300Z,95394.41
2017-09-18T05:40:36.807Z,95395.38
2017-09-18T05:43:04.697Z,95397.63
2017-09-18T05:45:32.323Z,95399.67
2017-09-18T05:47:59.847Z,95391.48
2017-09-18T05:50:27.373Z,95391.42
2017-09-18T05:52:54.954Z,95393.28
2017-09-18T05:55:22.537Z,95396.09
2017-09-18T05:57:50.104Z,95399.82
2017-09-18T06:00:17.683Z,95392.74
2017-09-18T06:02:45.199Z,95395.84
2017-09-18T06:05:12.702Z,95398.63
2017-09-18T06:07:40.486Z,95395.58
2017-09-18T06:10:08.022Z,95396.84
2017-09-18T06:12:35.770Z,95390.75
2017-09-18T06:15:03.349Z,95385.64
2017-09-18T06:17:30.975Z,95386.08
2017-09-18T06:19:58.484Z,95386.30
2017-09-18T06:22:26.044Z,95388.05
2017-09-18T06:24:54.660Z,95390.09
2017-09-18T06:27:22.217Z,95391.09
2017-09-18T06:29:49.767Z,95389.33
2017-09-18T06:32:17.337Z,95394.16
2017-09-18T06:34:44.883Z,95391.67
2017-09-18T06:37:12.404Z,95393.59
2017-09-18T06:39:40.035Z,95395.27
2017-09-18T06:42:08.067Z,95394.12
2017-09-18T06:44:35.589Z,95385.23
2017-09-18T06:47:03.161Z,95392.07
2017-09-18T06:49:30.718Z,95388.89
2017-09-18T06:51:58.253Z,95394.56
2017-09-18T06:54:25.899Z,95396.23
2017-09-18T06:56:53.437Z,95390.37
2017-09-18T06:59:20.953Z,95393.92
2017-09-18T07:01:48.584Z,95387.94
2017-09-18T07:04:16.152Z,95389.34
2017-09-18T07:06:43.691Z,95384.18
2017-09-18T07:09:11.251Z,95381.31
2017-09-18T07:11:38.765Z,95386.03
2017-09-18T07:14:06.357Z,95385.12
2017-09-18T07:16:33.938Z,95383.48
2017-09-18T07:19:01.704Z,95379.98
2017-09-18T07:21:29.222Z,95374.09
2017-09-18T07:23:56.834Z,95375.23
2017-09-18T07:26:24.394Z,95387.16
2017-09-18T07:28:51.967Z,95384.95
2017-09-18T07:31:19.554Z,95381.70
2017-09-18T07:33:47.161Z,95380.84
2017-09-18T07:36:14.676Z,95383.67
2017-09-18T07:38:42.237Z,95380.50
2017-09-18T07:41:09.777Z,95380.09
2017-09-18T07:43:37.597Z,95379.60
2017-09-18T07:46:05.206Z,95373.76
2017-09-18T07:48:32.832Z,95375.66
2017-09-18T07:51:00.338Z,95363.62
2017-09-18T07:53:28.106Z,95358.11
2017-09-18T07:55:55.875Z,95362.17
2017-09-18T07:58:23.618Z,95358.64
2017-09-18T08:00:51.159Z,95351.37
2017-09-18T08:03:19.159Z,95358.91
2017-09-18T08:05:46.691Z,95354.92
2017-09-18T08:08:14.339Z,95345.16
2017-09-18T08:10:41.935Z,95346.42
2017-09-18T08:13:09.800Z,95342.56
2017-09-18T08:15:37.360Z,95334.69
2017-09-18T08:18:04.927Z,95328.96
2017-09-18T08:20:32.483Z,95326.90
2017-09-18T08:23:00.103Z,95328.30
2017-09-18T08:25:27.624Z,95329.23
2017-09-18T08:27:55.202Z,95323.77
2017-09-18T08:30:23.980Z,95326.38
2017-09-18T08:32:51.546Z,95329.52
2017-09-18T08:35:19.067Z,95330.13
2017-09-18T08:37:46.644Z,95327.28
2017-09-18T08:40:14.555Z,95320.30
2017-09-18T08:42:42.330Z,95306.69
2017-09-18T08:45:09.965Z,95308.77
2017-09-18T08:47:37.594Z,95307.59
2017-09-18T08:50:05.194Z,95311.89
2017-09-18T08:52:32.766Z,95304.86
2017-09-18T08:55:00.371Z,95313.87
2017-09-18T08:57:28.256Z,95300.81
2017-09-18T08:59:55.853Z,95303.50
2017-09-18T09:02:23.442Z,95286.21
2017-09-18T09:04:50.981Z,95298.28
2017-09-18T09:07:18.551Z,95293.20
2017-09-18T09:09:46.164Z,95284.70
2017-09-18T09:12:13.769Z,95285.33
2017-09-18T09:14:41.314Z,95287.38
2017-09-18T09:17:08.879Z,95287.03
2017-09-18T09:19:36.441Z,95284.36
2017-09-18T09:22:03.947Z,95273.80
2017-09-18T09:24:31.530Z,95271.50
2017-09-18T09:26:59.344Z,95278.21
2017-09-18T09:29:26.918Z,95273.77
2017-09-18T09:31:54.501Z,95274.55
2017-09-18T09:34:22.018Z,95271.27
2017-09-18T09:36:49.542Z,95270.27
2017-09-18T09:39:17.248Z,95270.30
2017-09-18T09:41:45.074Z,95261.14
2017-09-18T09:44:12.632Z,95265.17
2017-09-18T09:46:40.242Z,95265.73
2017-09-18T09:49:07.765Z,95263.27
2017-09-18T09:51:35.296Z,95252.45
2017-09-18T09:54:02.862Z,95249.66
2017-09-18T09:56:30.410Z,95248.73
2017-09-18T09:58:57.983Z,95243.75
2017-09-18T10:01:25.599Z,95249.52
2017-09-18T10:03:53.137Z,95249.42
2017-09-18T10:06:20.723Z,95235.72
2017-09-18T10:08:48.425Z,95238.02
2017-09-18T10:11:15.954Z,95237.41
2017-09-18T10:13:43.522Z,95233.52
2017-09-18T10:16:11.089Z,95237.23
2017-09-18T10:18:38.631Z,95234.66
2017-09-18T10:21:06.135Z,95229.13
2017-09-18T10:23:33.725Z,95219.42
2017-09-18T10:26:01.233Z,95224.41
2017-09-18T10:28:28.837Z,95217.31
2017-09-18T10:30:56.420Z,95208.59
2017-09-18T10:33:23.945Z,95210.30
2017-09-18T10:35:51.804Z,95205.54
2017-09-18T10:38:19.469Z,95197.46
2017-09-18T10:40:47.259Z,95201.50
2017-09-18T10:43:14.785Z,95191.16
2017-09-18T10:45:42.362Z,95184.95
2017-09-18T10:48:09.925Z,95183.98
2017-09-18T10:50:37.490Z,95182.50
2017-09-18T10:53:05.086Z,95184.99
2017-09-18T10:55:32.826Z,95182.46
2017-09-18T10:58:00.416Z,95177.70
2017-09-18T11:00:28.098Z,95167.59
2017-09-18T11:02:55.629Z,95163.77
2017-09-18T11:05:23.397Z,95160.03
2017-09-18T11:07:50.959Z,95156.45
2017-09-18T11:10:18.470Z,95153.92
2017-09-18T11:12:46.286Z,95155.41
2017-09-18T11:15:13.873Z,95144.82
2017-09-18T11:17:41.406Z,95144.39
2017-09-18T11:20:08.920Z,95146.45
2017-09-18T11:22:36.489Z,95142.91
2017-09-18T11:25:04.072Z,95139.36
2017-09-18T11:27:31.610Z,95138.05
2017-09-18T11:29:59.175Z,95137.41
2017-09-18T11:32:26.743Z,95126.83
2017-09-18T11:34:54.265Z,95122.72
2017-09-18T11:37:21.821Z,95130.59
2017-09-18T11:39:49.399Z,95120.18
2017-09-18T11:42:16.910Z,95125.33
2017-09-18T11:44:44.471Z,95114.06
2017-09-18T11:47:12.109Z,95119.63
2017-09-18T11:49:39.637Z,95109.98
2017-09-18T11:52:07.153Z,95106.33
2017-09-18T11:54:34.712Z,95101.45
2017-09-18T11:57:02.234Z,95099.64
2017-09-18T11:59:30.293Z,95089.70
2017-09-18T12:01:57.874Z,95084.76
2017-09-18T12:04:25.397Z,95085.16
2017-09-18T12:06:52.905Z,95083.15
2017-09-18T12:09:20.516Z,95076.02
2017-09-18T12:11:48.058Z,95072.69
2017-09-18T12:14:15.879Z,95066.81
2017-09-18T12:16:43.494Z,95066.16
2017-09-18T12:19:11.298Z,95058.50
2017-09-18T12:21:38.908Z,95048.16
2017-09-18T12:24:06.493Z,95055.14
2017-09-18T12:26:34.450Z,95046.66
2017-09-18T12:29:02.726Z,95043.44
2017-09-18T12:31:31.043Z,95036.12
2017-09-18T12:33:58.670Z,95032.73
2017-09-18T12:36:26.647Z,95034.30
2017-09-18T12:38:54.257Z,95036.23
2017-09-18T12:41:21.784Z,95036.28
2017-09-18T12:43:50.001Z,95039.14
2017-09-18T12:46:17.556Z,95028.45
2017-09-18T12:48:45.148Z,95027.44
2017-09-18T12:51:13.226Z,95027.14
2017-09-18T12:53:40.788Z,95018.90
2017-09-18T12:56:08.325Z,95022.83
2017-09-18T12:58:35.904Z,95023.07
2017-09-18T13:01:03.489Z,95012.67
2017-09-18T13:03:31.104Z,95015.77
2017-09-18T13:05:58.686Z,95008.81
2017-09-18T13:08:26.273Z,95003.75
2017-09-18T13:10:53.798Z,94999.27
2017-09-18T13:13:21.297Z,94997.11
2017-09-18T13:15:49.057Z,94993.76
2017-09-18T13:18:16.626Z,94999.55
2017-09-18T13:20:44.553Z,94998.75
2017-09-18T13:23:12.167Z,95003.72
2017-09-18T13:25:39.914Z,95004.59
2017-09-18T13:28:07.500Z,94998.12
2017-09-18T13:30:35.292Z,94999.68
2017-09-18T13:33:02.817Z,95000.91
2017-09-18T13:35:30.657Z,94989.97
2017-09-18T13:37:58.203Z,94986.05
2017-09-18T13:40:25.724Z,94991.52
2017-09-18T13:42:53.341Z,94995.06
2017-09-18T13:45:20.975Z,94997.59
2017-09-18T13:47:48.719Z,94994.89
2017-09-18T13:50:16.276Z,94981.19
2017-09-18T13:52:43.835Z,94987.92
2017-09-18T13:55:11.433Z,94993.69
2017-09-18T13:57:38.941Z,94990.17
2017-09-18T14:00:06.876Z,94988.16
2017-09-18T14:02:34.412Z,94980.67
2017-09-18T14:05:01.958Z,94984.13
2017-09-18T14:07:29.568Z,94982.19
2017-09-18T14:09:57.108Z,94984.59
2017-09-18T14:12:24.627Z,94985.80
2017-09-18T14:14:52.167Z,94984.97
2017-09-18T14:17:19.740Z,94976.56
2017-09-18T14:19:47.323Z,94985.25
2017-09-18T14:22:14.876Z,94980.78
2017-09-18T14:24:42.456Z,94987.91
2017-09-18T14:27:10.038Z,94995.08
2017-09-18T14:29:37.615Z,94986.83
2017-09-18T14:32:05.985Z,94991.48
2017-09-18T14:34:33.546Z,95005.46
2017-09-18T14:37:01.072Z,94987.20
2017-09-18T14:39:28.627Z,94986.48
2017-09-18T14:41:56.402Z,94990.78
2017-09-18T14:44:23.922Z,94990.84
2017-09-18T14:46:51.497Z,94996.62
2017-09-18T14:49:19.082Z,94995.85
2017-09-18T14:51:46.689Z,94998.98
2017-09-18T14:54:14.242Z,95001.11
2017-09-18T14:56:41.785Z,95000.40
2017-09-18T14:59:09.297Z,95003.00
2017-09-18T15:01:36.872Z,95014.43
2017-09-18T15:04:04.636Z,95015.98
2017-09-18T15:06:32.190Z,95019.05
2017-09-18T15:08:59.994Z,95017.77
2017-09-18T15:11:27.523Z,95026.13
2017-09-18T15:13:55.052Z,95030.22
2017-09-18T15:16:22.624Z,95025.72
2017-09-18T15:18:50.176Z,95028.89
2017-09-18T15:21:17.717Z,95032.06
2017-09-18T15:23:45.312Z,95038.40
2017-09-18T15:26:12.842Z,95040.82
2017-09-18T15:28:40.391Z,95048.39
2017-09-18T15:31:07.981Z,95044.05
2017-09-18T15:33:35.848Z,95047.31
2017-09-18T15:36:04.023Z,95043.28
2017-09-18T15:38:31.635Z,95046.14
2017-09-18T15:40:59.846Z,95048.06
2017-09-18T15:43:27.472Z,95050.37
2017-09-18T15:45:55.089Z,95056.19
2017-09-18T15:48:22.683Z,95055.88
2017-09-18T15:50:50.429Z,95057.09
2017-09-18T15:53:18.022Z,95065.73
2017-09-18T15:55:45.603Z,95068.30
2017-09-18T15:58:13.223Z,95070.57
2017-09-18T16:00:40.813Z,95067.22
2017-09-18T16:03:08.366Z,95067.27
2017-09-18T16:05:35.915Z,95071.77
2017-09-18T16:08:03.534Z,95073.91
2017-09-18T16:10:31.082Z,95077.59
2017-09-18T16:12:58.646Z,95081.25
2017-09-18T16:15:26.223Z,95085.77
2017-09-18T16:17:53.755Z,95089.98
2017-09-18T16:20:21.290Z,95097.81
2017-09-18T16:22:48.923Z,95100.10
2017-09-18T16:25:16.848Z,95096.75
2017-09-18T16:27:44.366Z,95095.98
2017-09-18T16:30:12.848Z,95097.20
2017-09-18T16:32:40.419Z,95095.28
2017-09-18T16:35:08.179Z,95098.38
2017-09-18T16:37:35.752Z,95112.32
2017-09-18T16:40:03.546Z,95115.02
2017-09-18T16:42:31.170Z,95113.81
2017-09-18T16:44:58.770Z,95119.92
2017-09-18T16:47:26.342Z,95116.11
2017-09-18T16:49:53.924Z,95120.34
2017-09-18T16:52:21.539Z,95116.70
2017-09-18T16:54:49.122Z,95122.84
2017-09-18T16:57:16.677Z,95129.53
2017-09-18T16:59:44.330Z,95124.15
2017-09-18T17:02:11.910Z,95125.03
2017-09-18T17:04:39.473Z,95133.81
2017-09-18T17:07:07.047Z,95140.84
2017-09-18T17:09:34.671Z,95146.00
2017-09-18T17:12:02.223Z,95151.50
2017-09-18T17:14:29.796Z,95143.59
2017-09-18T17:16:57.419Z,95141.62
2017-09-18T17:19:25.011Z,95147.74
2017-09-18T17:21:52.642Z,95157.88
2017-09-18T17:24:20.346Z,95154.94
2017-09-18T17:26:48.102Z,95157.26
2017-09-18T17:29:15.734Z,95153.05
2017-09-18T17:31:43.339Z,95159.97
2017-09-18T17:34:11.127Z,95154.53
2017-09-18T17:36:38.768Z,95158.89
2017-09-18T17:39:14.524Z,95161.09
2017-09-18T17:41:42.103Z,95160.34
2017-09-18T17:44:09.720Z,95162.51
2017-09-18T17:46:37.303Z,95158.02
2017-09-18T17:49:05.152Z,95161.06
2017-09-18T17:51:32.713Z,95161.42
2017-09-18T17:54:00.304Z,95163.26
2017-09-18T17:56:27.856Z,95164.39
2017-09-18T17:58:55.532Z,95165.55
2017-09-18T18:01:23.139Z,95159.24
2017-09-18T18:03:51.071Z,95156.14
2017-09-18T18:06:18.646Z,95156.08
2017-09-18T18:08:46.275Z,95152.58
2017-09-18T18:11:13.845Z,95158.25
2017-09-18T18:13:41.471Z,95156.60
2017-09-18T18:16:09.063Z,95150.25
2017-09-18T18:18:36.623Z,95160.31
2017-09-18T18:21:04.217Z,95156.23
2017-09-18T18:23:31.803Z,95158.95
2017-09-18T18:25:59.390Z,95157.75
2017-09-18T18:28:26.989Z,95170.04
2017-09-18T18:30:54.635Z,95163.80
2017-09-18T18:33:22.799Z,95163.57
2017-09-18T18:35:50.373Z,95160.91
2017-09-18T18:38:17.991Z,95155.98
2017-09-18T18:40:45.549Z,95164.69
2017-09-18T18:43:13.999Z,95166.13
2017-09-18T18:45:41.606Z,95161.27
2017-09-18T18:48:09.457Z,95164.56
2017-09-18T18:50:38.075Z,95165.91
2017-09-18T18:53:06.497Z,95172.31
2017-09-18T18:55:34.051Z,95166.18
2017-09-18T18:58:01.704Z,95168.91
2017-09-18T19:00:29.298Z,95169.63
2017-09-18T19:02:56.899Z,95167.73
2017-09-18T19:05:24.417Z,95169.34
2017-09-18T19:07:51.974Z,95163.92
2017-09-18T19:10:19.787Z,95166.82
2017-09-18T19:12:47.348Z,95169.89
2017-09-18T19:15:14.953Z,95167.97
2017-09-18T19:17:42.893Z,95163.09
2017-09-18T19:20:10.476Z,95167.94
2017-09-18T19:22:39.046Z,95169.67
2017-09-18T19:25:06.580Z,95172.23
2017-09-18T19:27:34.349Z,95168.70
2017-09-18T19:30:01.994Z,95161.45
2017-09-18T19:32:29.616Z,95167.08
2017-09-18T19:34:57.378Z,95170.87
2017-09-18T19:37:24.963Z,95170.83
2017-09-18T19:39:52.571Z,95175.36
2017-09-18T19:42:20.097Z,95178.01
2017-09-18T19:44:47.890Z,95176.02
2017-09-18T19:47:15.600Z,95177.09
2017-09-18T19:49:43.233Z,95171.86
2017-09-18T19:52:10.851Z,95166.54
2017-09-18T19:54:38.446Z,95171.23
2017-09-18T19:57:05.996Z,95169.20
2017-09-18T19:59:33.600Z,95175.39
2017-09-18T20:02:01.185Z,95170.09
2017-09-18T20:04:28.759Z,95168.48
2017-09-18T20:06:56.311Z,95155.92
2017-09-18T20:09:23.931Z,95149.48
2017-09-18T20:11:51.526Z,95148.22
2017-09-18T20:14:19.323Z,95143.89
2017-09-18T20:16:46.902Z,95148.89
2017-09-18T20:19:14.477Z,95141.84
2017-09-18T20:21:42.049Z,95150.33
2017-09-18T20:24:09.607Z,95147.77
2017-09-18T20:26:38.144Z,95147.84
2017-09-18T20:29:05.675Z,95154.21
2017-09-18T20:31:33.300Z,95153.22
2017-09-18T20:34:00.881Z,95157.65
2017-09-18T20:36:28.698Z,95152.39
2017-09-18T20:38:56.516Z,95145.53
2017-09-18T20:41:24.177Z,95149.56
2017-09-18T20:43:53.232Z,95144.20
2017-09-18T20:46:20.867Z,95143.67
2017-09-18T20:48:48.453Z,95136.71
2017-09-18T20:51:16.030Z,95141.29
2017-09-18T20:53:43.646Z,95141.75
2017-09-18T20:56:11.302Z,95144.66
2017-09-18T20:58:39.046Z,95148.27
2017-09-18T21:01:06.642Z,95147.86
2017-09-18T21:03:34.209Z,95154.41
2017-09-18T21:06:01.811Z,95145.09
2017-09-18T21:08:29.505Z,95147.11
2017-09-18T21:10:57.061Z,95139.97
2017-09-18T21:13:24.613Z,95143.84
2017-09-18T21:15:52.201Z,95144.08
2017-09-18T21:18:19.748Z,95149.33
2017-09-18T21:20:47.307Z,95146.44
2017-09-18T21:23:14.906Z,95136.66
2017-09-18T21:25:42.482Z,95137.02
2017-09-18T21:28:10.265Z,95138.85
2017-09-18T21:30:37.972Z,95136.05
2017-09-18T21:33:05.550Z,95134.52
2017-09-18T21:35:33.154Z,95135.66
2017-09-18T21:38:00.783Z,95141.84
2017-09-18T21:40:28.307Z,95140.63
2017-09-18T21:42:55.927Z,95132.77
2017-09-18T21:45:23.537Z,95132.38
2017-09-18T21:47:51.092Z,95128.09
2017-09-18T21:50:18.855Z,95129.12
2017-09-18T21:52:46.431Z,95129.15
2017-09-18T21:55:13.980Z,95133.21
2017-09-18T21:57:49.990Z,95129.12
2017-09-18T22:00:17.607Z,95137.09
2017-09-18T22:02:45.218Z,95129.51
2017-09-18T22:05:15.340Z,95130.09
2017-09-18T22:07:43.000Z,95133.16
2017-09-18T22:10:10.611Z,95128.78
2017-09-18T22:12:38.183Z,95130.29
2017-09-18T22:15:06.725Z,95065.69
2017-09-18T22:17:34.607Z,95117.99
2017-09-18T22:23:23.071Z,95123.97
2017-09-18T22:25:50.693Z,95130.05
2017-09-18T22:28:18.388Z,95127.95
2017-09-18T22:30:46.047Z,95126.95
2017-09-18T22:33:13.636Z,95124.98
2017-09-18T22:35:41.451Z,95123.70
2017-09-18T22:38:09.078Z,95132.41
2017-09-18T22:40:36.773Z,95130.37
2017-09-18T22:43:04.795Z,95129.39
2017-09-18T22:45:32.405Z,95128.05
2017-09-18T22:47:59.960Z,95135.48
2017-09-18T22:50:27.511Z,95128.76
2017-09-18T22:52:55.161Z,95123.23
2017-09-18T22:55:22.748Z,95120.38
2017-09-18T22:57:50.274Z,95108.91
2017-09-18T23:00:17.915Z,95121.26
2017-09-18T23:02:45.759Z,95107.66
2017-09-18T23:05:13.281Z,95115.73
2017-09-18T23:07:40.872Z,95115.27
2017-09-18T23:10:08.425Z,95112.67
2017-09-18T23:12:36.910Z,95109.52
2017-09-18T23:15:04.503Z,95102.19
2017-09-18T23:17:32.039Z,95103.41
2017-09-18T23:19:59.651Z,95110.02
2017-09-18T23:22:27.221Z,95100.28
2017-09-18T23:24:54.774Z,95106.52
2017-09-18T23:27:22.342Z,95099.50
2017-09-18T23:29:49.951Z,95102.56
2017-09-18T23:32:17.521Z,95095.91
2017-09-18T23:34:45.060Z,95089.61
2017-09-18T23:37:13.156Z,95086.19
2017-09-18T23:39:40.721Z,95087.00
2017-09-18T23:42:08.286Z,95081.82
2017-09-18T23:44:35.822Z,95081.82
2017-09-18T23:47:03.634Z,95081.39
2017-09-18T23:49:31.155Z,95082.88
2017-09-18T23:51:58.688Z,95078.44
2017-09-18T23:54:26.624Z,95078.81
2017-09-18T23:56:54.995Z,95076.40
2017-09-18T23:59:22.784Z,95076.53
